sensor_id;sensor_type;location;lat;lon;timestamp;temperature;humidity
65462;DHT22;53236;43.666;18.444;2023-06-14T00:01:55;12.80;99.90
65462;DHT22;53236;43.666;18.444;2023-06-14T00:04:21;12.70;99.90
65462;DHT22;53236;43.666;18.444;2023-06-14T00:06:47;12.70;99.90
65462;DHT22;53236;43.666;18.444;2023-06-14T00:09:14;12.60;99.90
65462;DHT22;53236;43.666;18.444;2023-06-14T00:11:43;12.60;99.90
65462;DHT22;53236;43.666;18.444;2023-06-14T00:14:08;12.50;99.90
65462;DHT22;53236;43.666;18.444;2023-06-14T00:16:35;12.50;99.90
65462;DHT22;53236;43.666;18.444;2023-06-14T00:19:01;12.40;99.90
65462;DHT22;53236;43.666;18.444;2023-06-14T00:21:30;12.40;99.90
65462;DHT22;53236;43.666;18.444;2023-06-14T00:23:57;12.40;99.90
65462;DHT22;53236;43.666;18.444;2023-06-14T00:26:23;12.30;99.90
65462;DHT22;53236;43.666;18.444;2023-06-14T00:28:49;12.30;99.90
65462;DHT22;53236;43.666;18.444;2023-06-14T00:31:15;12.20;99.90
65462;DHT22;53236;43.666;18.444;2023-06-14T00:33:40;12.10;99.90
65462;DHT22;53236;43.666;18.444;2023-06-14T00:36:06;12.10;99.90
65462;DHT22;53236;43.666;18.444;2023-06-14T00:38:32;12.00;99.90
65462;DHT22;53236;43.666;18.444;2023-06-14T00:40:58;11.90;99.90
65462;DHT22;53236;43.666;18.444;2023-06-14T00:43:23;11.90;99.90
65462;DHT22;53236;43.666;18.444;2023-06-14T00:45:50;11.80;99.90
65462;DHT22;53236;43.666;18.444;2023-06-14T00:48:17;11.80;99.90
65462;DHT22;53236;43.666;18.444;2023-06-14T00:50:43;11.70;99.90
65462;DHT22;53236;43.666;18.444;2023-06-14T00:53:12;11.70;99.90
65462;DHT22;53236;43.666;18.444;2023-06-14T00:55:38;11.60;99.90
65462;DHT22;53236;43.666;18.444;2023-06-14T00:58:03;11.60;99.90
65462;DHT22;53236;43.666;18.444;2023-06-14T01:00:29;11.60;99.90
65462;DHT22;53236;43.666;18.444;2023-06-14T01:02:55;11.50;99.90
65462;DHT22;53236;43.666;18.444;2023-06-14T01:05:22;11.50;99.90
65462;DHT22;53236;43.666;18.444;2023-06-14T01:11:18;11.40;99.90
65462;DHT22;53236;43.666;18.444;2023-06-14T01:13:48;11.30;99.90
65462;DHT22;53236;43.666;18.444;2023-06-14T01:16:16;11.30;99.90
65462;DHT22;53236;43.666;18.444;2023-06-14T01:18:44;11.20;99.90
65462;DHT22;53236;43.666;18.444;2023-06-14T01:21:21;11.20;99.90
65462;DHT22;53236;43.666;18.444;2023-06-14T01:23:47;11.20;99.90
65462;DHT22;53236;43.666;18.444;2023-06-14T01:26:21;11.10;99.90
65462;DHT22;53236;43.666;18.444;2023-06-14T01:28:49;11.10;99.90
65462;DHT22;53236;43.666;18.444;2023-06-14T01:31:20;11.00;99.90
65462;DHT22;53236;43.666;18.444;2023-06-14T01:33:50;10.90;99.90
65462;DHT22;53236;43.666;18.444;2023-06-14T01:36:18;10.90;99.90
65462;DHT22;53236;43.666;18.444;2023-06-14T01:38:46;10.80;99.90
65462;DHT22;53236;43.666;18.444;2023-06-14T01:41:14;10.70;99.90
65462;DHT22;53236;43.666;18.444;2023-06-14T01:43:41;10.70;99.90
65462;DHT22;53236;43.666;18.444;2023-06-14T01:46:08;10.60;99.90
65462;DHT22;53236;43.666;18.444;2023-06-14T01:48:35;10.60;99.90
65462;DHT22;53236;43.666;18.444;2023-06-14T01:51:01;10.60;99.90
65462;DHT22;53236;43.666;18.444;2023-06-14T01:53:27;10.70;99.90
65462;DHT22;53236;43.666;18.444;2023-06-14T01:55:52;10.60;99.90
65462;DHT22;53236;43.666;18.444;2023-06-14T01:58:19;10.60;99.90
65462;DHT22;53236;43.666;18.444;2023-06-14T02:00:46;10.60;99.90
65462;DHT22;53236;43.666;18.444;2023-06-14T02:03:13;10.70;99.90
65462;DHT22;53236;43.666;18.444;2023-06-14T02:05:38;10.70;99.90
65462;DHT22;53236;43.666;18.444;2023-06-14T02:08:05;10.60;99.90
65462;DHT22;53236;43.666;18.444;2023-06-14T02:10:31;10.60;99.90
65462;DHT22;53236;43.666;18.444;2023-06-14T02:12:57;10.60;99.90
65462;DHT22;53236;43.666;18.444;2023-06-14T02:15:23;10.50;99.90
65462;DHT22;53236;43.666;18.444;2023-06-14T02:17:49;10.50;99.90
65462;DHT22;53236;43.666;18.444;2023-06-14T02:20:15;10.60;99.90
65462;DHT22;53236;43.666;18.444;2023-06-14T02:22:41;10.50;99.90
65462;DHT22;53236;43.666;18.444;2023-06-14T02:25:07;10.50;99.90
65462;DHT22;53236;43.666;18.444;2023-06-14T02:27:34;10.50;99.90
65462;DHT22;53236;43.666;18.444;2023-06-14T02:30:00;10.50;99.90
65462;DHT22;53236;43.666;18.444;2023-06-14T02:32:26;10.50;99.90
65462;DHT22;53236;43.666;18.444;2023-06-14T02:34:53;10.40;99.90
65462;DHT22;53236;43.666;18.444;2023-06-14T02:37:19;10.40;99.90
65462;DHT22;53236;43.666;18.444;2023-06-14T02:39:45;10.20;99.90
65462;DHT22;53236;43.666;18.444;2023-06-14T02:42:11;10.20;99.90
65462;DHT22;53236;43.666;18.444;2023-06-14T02:44:36;10.10;99.90
65462;DHT22;53236;43.666;18.444;2023-06-14T02:47:03;10.10;99.90
65462;DHT22;53236;43.666;18.444;2023-06-14T02:49:29;10.10;99.90
65462;DHT22;53236;43.666;18.444;2023-06-14T02:51:55;10.00;99.90
65462;DHT22;53236;43.666;18.444;2023-06-14T02:54:21;9.90;99.90
65462;DHT22;53236;43.666;18.444;2023-06-14T02:56:47;9.90;99.90
65462;DHT22;53236;43.666;18.444;2023-06-14T02:59:13;9.90;99.90
65462;DHT22;53236;43.666;18.444;2023-06-14T03:01:39;9.90;99.90
65462;DHT22;53236;43.666;18.444;2023-06-14T03:04:08;9.90;99.90
65462;DHT22;53236;43.666;18.444;2023-06-14T03:06:33;9.90;99.90
65462;DHT22;53236;43.666;18.444;2023-06-14T03:09:00;10.00;99.90
65462;DHT22;53236;43.666;18.444;2023-06-14T03:11:30;10.00;99.90
65462;DHT22;53236;43.666;18.444;2023-06-14T03:13:56;10.10;99.90
65462;DHT22;53236;43.666;18.444;2023-06-14T03:16:22;10.20;99.90
65462;DHT22;53236;43.666;18.444;2023-06-14T03:18:52;10.20;99.90
65462;DHT22;53236;43.666;18.444;2023-06-14T03:21:19;10.30;99.90
65462;DHT22;53236;43.666;18.444;2023-06-14T03:23:46;10.40;99.90
65462;DHT22;53236;43.666;18.444;2023-06-14T03:26:12;10.50;99.90
65462;DHT22;53236;43.666;18.444;2023-06-14T03:28:44;10.50;99.90
65462;DHT22;53236;43.666;18.444;2023-06-14T03:31:11;10.60;99.90
65462;DHT22;53236;43.666;18.444;2023-06-14T03:33:36;10.60;99.90
65462;DHT22;53236;43.666;18.444;2023-06-14T03:36:02;10.60;99.90
65462;DHT22;53236;43.666;18.444;2023-06-14T03:38:29;10.50;99.90
65462;DHT22;53236;43.666;18.444;2023-06-14T03:40:55;10.50;99.90
65462;DHT22;53236;43.666;18.444;2023-06-14T03:43:21;10.60;99.90
65462;DHT22;53236;43.666;18.444;2023-06-14T03:45:47;10.70;99.90
65462;DHT22;53236;43.666;18.444;2023-06-14T03:48:12;10.70;99.90
65462;DHT22;53236;43.666;18.444;2023-06-14T03:50:38;10.70;99.90
65462;DHT22;53236;43.666;18.444;2023-06-14T03:53:05;10.70;99.90
65462;DHT22;53236;43.666;18.444;2023-06-14T03:55:30;10.70;99.90
65462;DHT22;53236;43.666;18.444;2023-06-14T03:57:57;10.80;99.90
65462;DHT22;53236;43.666;18.444;2023-06-14T04:00:23;10.80;99.90
65462;DHT22;53236;43.666;18.444;2023-06-14T04:02:49;10.90;99.90
65462;DHT22;53236;43.666;18.444;2023-06-14T04:05:15;11.00;99.90
65462;DHT22;53236;43.666;18.444;2023-06-14T04:07:42;11.10;99.90
65462;DHT22;53236;43.666;18.444;2023-06-14T04:10:11;11.20;99.90
65462;DHT22;53236;43.666;18.444;2023-06-14T04:12:37;11.20;99.90
65462;DHT22;53236;43.666;18.444;2023-06-14T04:15:03;11.20;99.90
65462;DHT22;53236;43.666;18.444;2023-06-14T04:17:31;11.30;99.90
65462;DHT22;53236;43.666;18.444;2023-06-14T04:19:59;11.30;99.90
65462;DHT22;53236;43.666;18.444;2023-06-14T04:22:28;11.20;99.90
65462;DHT22;53236;43.666;18.444;2023-06-14T04:24:55;11.30;99.90
65462;DHT22;53236;43.666;18.444;2023-06-14T04:27:22;11.30;99.90
65462;DHT22;53236;43.666;18.444;2023-06-14T04:29:54;11.40;99.90
65462;DHT22;53236;43.666;18.444;2023-06-14T04:32:28;11.60;99.90
65462;DHT22;53236;43.666;18.444;2023-06-14T04:34:59;11.90;99.90
65462;DHT22;53236;43.666;18.444;2023-06-14T04:37:27;12.10;99.90
65462;DHT22;53236;43.666;18.444;2023-06-14T04:39:55;12.40;99.90
65462;DHT22;53236;43.666;18.444;2023-06-14T04:42:22;12.60;99.90
65462;DHT22;53236;43.666;18.444;2023-06-14T04:44:53;12.80;99.90
65462;DHT22;53236;43.666;18.444;2023-06-14T04:47:21;13.00;99.90
65462;DHT22;53236;43.666;18.444;2023-06-14T04:49:47;13.20;99.90
65462;DHT22;53236;43.666;18.444;2023-06-14T04:52:13;13.40;99.90
65462;DHT22;53236;43.666;18.444;2023-06-14T04:54:42;13.60;99.90
65462;DHT22;53236;43.666;18.444;2023-06-14T04:57:09;13.80;99.90
65462;DHT22;53236;43.666;18.444;2023-06-14T04:59:40;14.00;99.90
65462;DHT22;53236;43.666;18.444;2023-06-14T05:02:06;14.40;99.90
65462;DHT22;53236;43.666;18.444;2023-06-14T05:04:32;14.50;99.90
65462;DHT22;53236;43.666;18.444;2023-06-14T05:06:58;15.20;99.90
65462;DHT22;53236;43.666;18.444;2023-06-14T05:09:24;16.40;99.90
65462;DHT22;53236;43.666;18.444;2023-06-14T05:11:50;17.60;99.90
65462;DHT22;53236;43.666;18.444;2023-06-14T05:14:16;19.00;99.80
65462;DHT22;53236;43.666;18.444;2023-06-14T05:16:43;20.50;87.10
65462;DHT22;53236;43.666;18.444;2023-06-14T05:19:09;22.10;76.50
65462;DHT22;53236;43.666;18.444;2023-06-14T05:21:36;23.60;69.10
65462;DHT22;53236;43.666;18.444;2023-06-14T05:24:02;24.60;65.20
65462;DHT22;53236;43.666;18.444;2023-06-14T05:26:28;25.80;62.30
65462;DHT22;53236;43.666;18.444;2023-06-14T05:28:55;27.00;58.30
65462;DHT22;53236;43.666;18.444;2023-06-14T05:31:22;28.30;55.80
65462;DHT22;53236;43.666;18.444;2023-06-14T05:33:49;29.00;54.10
65462;DHT22;53236;43.666;18.444;2023-06-14T05:36:15;29.40;53.40
65462;DHT22;53236;43.666;18.444;2023-06-14T05:38:41;30.10;52.60
65462;DHT22;53236;43.666;18.444;2023-06-14T05:41:07;30.90;51.30
65462;DHT22;53236;43.666;18.444;2023-06-14T05:43:33;31.30;49.90
65462;DHT22;53236;43.666;18.444;2023-06-14T05:45:58;31.90;49.00
65462;DHT22;53236;43.666;18.444;2023-06-14T05:48:24;32.40;47.20
65462;DHT22;53236;43.666;18.444;2023-06-14T05:50:50;32.90;47.00
65462;DHT22;53236;43.666;18.444;2023-06-14T05:53:16;33.70;46.60
65462;DHT22;53236;43.666;18.444;2023-06-14T05:55:41;34.30;45.60
65462;DHT22;53236;43.666;18.444;2023-06-14T05:58:07;34.80;45.10
65462;DHT22;53236;43.666;18.444;2023-06-14T06:00:33;35.30;44.50
65462;DHT22;53236;43.666;18.444;2023-06-14T06:03:00;35.50;44.10
65462;DHT22;53236;43.666;18.444;2023-06-14T06:05:26;35.60;43.80
65462;DHT22;53236;43.666;18.444;2023-06-14T06:07:52;36.20;43.30
65462;DHT22;53236;43.666;18.444;2023-06-14T06:10:18;36.70;43.00
65462;DHT22;53236;43.666;18.444;2023-06-14T06:12:44;36.40;42.80
65462;DHT22;53236;43.666;18.444;2023-06-14T06:15:10;36.70;43.00
65462;DHT22;53236;43.666;18.444;2023-06-14T06:17:38;36.50;42.40
65462;DHT22;53236;43.666;18.444;2023-06-14T06:20:05;36.00;42.90
65462;DHT22;53236;43.666;18.444;2023-06-14T06:22:34;36.20;43.90
65462;DHT22;53236;43.666;18.444;2023-06-14T06:25:00;36.90;44.00
65462;DHT22;53236;43.666;18.444;2023-06-14T06:27:25;37.00;42.40
65462;DHT22;53236;43.666;18.444;2023-06-14T06:29:51;36.80;42.10
65462;DHT22;53236;43.666;18.444;2023-06-14T06:32:18;36.60;42.20
65462;DHT22;53236;43.666;18.444;2023-06-14T06:34:43;36.50;43.00
65462;DHT22;53236;43.666;18.444;2023-06-14T06:37:09;36.40;44.10
65462;DHT22;53236;43.666;18.444;2023-06-14T06:39:35;36.60;42.80
65462;DHT22;53236;43.666;18.444;2023-06-14T06:42:01;36.60;42.20
65462;DHT22;53236;43.666;18.444;2023-06-14T06:44:26;36.30;42.60
65462;DHT22;53236;43.666;18.444;2023-06-14T06:46:52;35.70;43.20
65462;DHT22;53236;43.666;18.444;2023-06-14T06:49:18;36.00;43.50
65462;DHT22;53236;43.666;18.444;2023-06-14T06:52:05;36.20;43.50
65462;DHT22;53236;43.666;18.444;2023-06-14T06:54:31;36.70;43.00
65462;DHT22;53236;43.666;18.444;2023-06-14T06:56:57;36.70;42.10
65462;DHT22;53236;43.666;18.444;2023-06-14T06:59:24;36.00;43.30
65462;DHT22;53236;43.666;18.444;2023-06-14T07:01:50;36.10;43.30
65462;DHT22;53236;43.666;18.444;2023-06-14T07:04:15;36.00;43.40
65462;DHT22;53236;43.666;18.444;2023-06-14T07:06:42;36.30;43.50
65462;DHT22;53236;43.666;18.444;2023-06-14T07:09:08;37.40;43.00
65462;DHT22;53236;43.666;18.444;2023-06-14T07:11:39;38.80;42.20
65462;DHT22;53236;43.666;18.444;2023-06-14T07:14:05;39.80;40.20
65462;DHT22;53236;43.666;18.444;2023-06-14T07:16:31;40.00;39.50
65462;DHT22;53236;43.666;18.444;2023-06-14T07:18:57;40.40;39.30
65462;DHT22;53236;43.666;18.444;2023-06-14T07:21:23;40.40;39.60
65462;DHT22;53236;43.666;18.444;2023-06-14T07:23:52;40.50;39.20
65462;DHT22;53236;43.666;18.444;2023-06-14T07:26:18;40.30;39.90
65462;DHT22;53236;43.666;18.444;2023-06-14T07:28:43;39.90;39.10
65462;DHT22;53236;43.666;18.444;2023-06-14T07:31:12;39.20;39.30
65462;DHT22;53236;43.666;18.444;2023-06-14T07:33:38;38.00;41.30
65462;DHT22;53236;43.666;18.444;2023-06-14T07:36:04;37.20;43.00
65462;DHT22;53236;43.666;18.444;2023-06-14T07:38:30;36.10;43.80
65462;DHT22;53236;43.666;18.444;2023-06-14T07:40:55;34.60;45.70
65462;DHT22;53236;43.666;18.444;2023-06-14T07:43:21;33.00;46.00
65462;DHT22;53236;43.666;18.444;2023-06-14T07:45:47;31.30;48.20
65462;DHT22;53236;43.666;18.444;2023-06-14T07:48:13;30.30;51.10
65462;DHT22;53236;43.666;18.444;2023-06-14T07:50:38;29.20;52.40
65462;DHT22;53236;43.666;18.444;2023-06-14T07:53:04;28.20;54.90
65462;DHT22;53236;43.666;18.444;2023-06-14T07:55:30;27.40;56.40
65462;DHT22;53236;43.666;18.444;2023-06-14T07:57:58;26.80;56.00
65462;DHT22;53236;43.666;18.444;2023-06-14T08:00:24;27.40;58.60
65462;DHT22;53236;43.666;18.444;2023-06-14T08:02:50;29.40;55.00
65462;DHT22;53236;43.666;18.444;2023-06-14T08:05:17;31.90;52.70
65462;DHT22;53236;43.666;18.444;2023-06-14T08:07:43;34.40;49.30
65462;DHT22;53236;43.666;18.444;2023-06-14T08:10:09;36.60;45.90
65462;DHT22;53236;43.666;18.444;2023-06-14T08:12:35;39.10;43.80
65462;DHT22;53236;43.666;18.444;2023-06-14T08:15:01;41.00;41.40
65462;DHT22;53236;43.666;18.444;2023-06-14T08:17:26;42.50;40.30
65462;DHT22;53236;43.666;18.444;2023-06-14T08:19:52;43.00;39.50
65462;DHT22;53236;43.666;18.444;2023-06-14T08:22:22;42.70;38.30
65462;DHT22;53236;43.666;18.444;2023-06-14T08:24:50;41.50;38.30
65462;DHT22;53236;43.666;18.444;2023-06-14T08:27:15;39.80;38.60
65462;DHT22;53236;43.666;18.444;2023-06-14T08:29:41;38.90;40.70
65462;DHT22;53236;43.666;18.444;2023-06-14T08:32:07;39.20;40.20
65462;DHT22;53236;43.666;18.444;2023-06-14T08:34:33;39.00;40.80
65462;DHT22;53236;43.666;18.444;2023-06-14T08:36:59;38.60;41.60
65462;DHT22;53236;43.666;18.444;2023-06-14T08:39:25;39.20;41.20
65462;DHT22;53236;43.666;18.444;2023-06-14T08:41:52;39.40;40.80
65462;DHT22;53236;43.666;18.444;2023-06-14T08:44:19;37.90;42.60
65462;DHT22;53236;43.666;18.444;2023-06-14T08:46:47;36.40;45.30
65462;DHT22;53236;43.666;18.444;2023-06-14T08:49:16;36.00;45.90
65462;DHT22;53236;43.666;18.444;2023-06-14T08:51:43;35.20;44.70
65462;DHT22;53236;43.666;18.444;2023-06-14T08:54:11;33.80;47.00
65462;DHT22;53236;43.666;18.444;2023-06-14T08:56:40;31.90;49.60
65462;DHT22;53236;43.666;18.444;2023-06-14T08:59:08;30.30;51.80
65462;DHT22;53236;43.666;18.444;2023-06-14T09:01:36;29.10;53.50
65462;DHT22;53236;43.666;18.444;2023-06-14T09:04:02;28.30;55.50
65462;DHT22;53236;43.666;18.444;2023-06-14T09:06:31;27.50;57.00
65462;DHT22;53236;43.666;18.444;2023-06-14T09:08:57;27.00;57.80
65462;DHT22;53236;43.666;18.444;2023-06-14T09:11:24;26.60;59.10
65462;DHT22;53236;43.666;18.444;2023-06-14T09:13:51;26.30;60.90
65462;DHT22;53236;43.666;18.444;2023-06-14T09:16:17;26.00;62.30
65462;DHT22;53236;43.666;18.444;2023-06-14T09:18:44;25.90;62.50
65462;DHT22;53236;43.666;18.444;2023-06-14T09:21:13;26.10;64.90
65462;DHT22;53236;43.666;18.444;2023-06-14T09:23:40;26.50;63.80
65462;DHT22;53236;43.666;18.444;2023-06-14T09:26:11;26.40;61.40
65462;DHT22;53236;43.666;18.444;2023-06-14T09:28:48;26.30;61.10
65462;DHT22;53236;43.666;18.444;2023-06-14T09:31:17;26.20;61.10
65462;DHT22;53236;43.666;18.444;2023-06-14T09:33:49;25.80;62.50
65462;DHT22;53236;43.666;18.444;2023-06-14T09:36:17;25.50;63.00
65462;DHT22;53236;43.666;18.444;2023-06-14T09:38:59;25.50;64.00
65462;DHT22;53236;43.666;18.444;2023-06-14T09:41:39;25.50;63.00
65462;DHT22;53236;43.666;18.444;2023-06-14T09:44:09;25.30;64.80
65462;DHT22;53236;43.666;18.444;2023-06-14T09:46:36;25.20;63.60
65462;DHT22;53236;43.666;18.444;2023-06-14T09:49:03;24.90;65.50
65462;DHT22;53236;43.666;18.444;2023-06-14T09:51:29;24.80;65.60
65462;DHT22;53236;43.666;18.444;2023-06-14T09:54:00;24.60;65.10
65462;DHT22;53236;43.666;18.444;2023-06-14T09:56:36;24.40;66.70
65462;DHT22;53236;43.666;18.444;2023-06-14T09:59:05;24.20;69.30
65462;DHT22;53236;43.666;18.444;2023-06-14T10:01:33;23.90;69.60
65462;DHT22;53236;43.666;18.444;2023-06-14T10:04:09;23.60;72.60
65462;DHT22;53236;43.666;18.444;2023-06-14T10:06:45;23.40;77.50
65462;DHT22;53236;43.666;18.444;2023-06-14T10:09:11;23.00;83.50
65462;DHT22;53236;43.666;18.444;2023-06-14T10:11:37;22.70;93.30
65462;DHT22;53236;43.666;18.444;2023-06-14T10:19:34;21.00;99.90
65462;DHT22;53236;43.666;18.444;2023-06-14T10:22:17;19.80;99.90
65462;DHT22;53236;43.666;18.444;2023-06-14T10:24:44;19.10;99.90
65462;DHT22;53236;43.666;18.444;2023-06-14T10:27:13;18.50;99.90
65462;DHT22;53236;43.666;18.444;2023-06-14T10:32:25;18.10;99.90
65462;DHT22;53236;43.666;18.444;2023-06-14T10:34:58;18.00;99.90
65462;DHT22;53236;43.666;18.444;2023-06-14T10:37:24;18.00;99.90
65462;DHT22;53236;43.666;18.444;2023-06-14T10:39:50;17.90;99.90
65462;DHT22;53236;43.666;18.444;2023-06-14T10:42:16;18.00;99.90
65462;DHT22;53236;43.666;18.444;2023-06-14T10:44:50;18.00;99.90
65462;DHT22;53236;43.666;18.444;2023-06-14T10:47:33;18.20;99.90
65462;DHT22;53236;43.666;18.444;2023-06-14T10:50:11;18.40;99.90
65462;DHT22;53236;43.666;18.444;2023-06-14T10:52:43;18.60;99.90
65462;DHT22;53236;43.666;18.444;2023-06-14T10:58:01;18.90;99.90
65462;DHT22;53236;43.666;18.444;2023-06-14T11:00:29;19.10;99.90
65462;DHT22;53236;43.666;18.444;2023-06-14T11:05:54;19.60;99.90
65462;DHT22;53236;43.666;18.444;2023-06-14T11:11:08;20.20;99.90
65462;DHT22;53236;43.666;18.444;2023-06-14T11:13:38;20.40;99.90
65462;DHT22;53236;43.666;18.444;2023-06-14T11:16:11;20.60;99.90
65462;DHT22;53236;43.666;18.444;2023-06-14T11:18:37;20.90;99.90
65462;DHT22;53236;43.666;18.444;2023-06-14T11:21:03;21.00;99.90
65462;DHT22;53236;43.666;18.444;2023-06-14T11:23:29;21.20;99.90
65462;DHT22;53236;43.666;18.444;2023-06-14T11:25:55;21.40;99.90
65462;DHT22;53236;43.666;18.444;2023-06-14T11:28:20;21.80;99.90
65462;DHT22;53236;43.666;18.444;2023-06-14T11:30:48;22.20;99.90
65462;DHT22;53236;43.666;18.444;2023-06-14T11:33:17;22.50;99.90
65462;DHT22;53236;43.666;18.444;2023-06-14T11:35:46;22.80;99.90
65462;DHT22;53236;43.666;18.444;2023-06-14T11:38:12;23.10;99.90
65462;DHT22;53236;43.666;18.444;2023-06-14T11:40:39;23.20;97.90
65462;DHT22;53236;43.666;18.444;2023-06-14T11:43:05;23.50;97.10
65462;DHT22;53236;43.666;18.444;2023-06-14T11:45:31;23.70;95.30
65462;DHT22;53236;43.666;18.444;2023-06-14T11:47:58;24.00;96.90
65462;DHT22;53236;43.666;18.444;2023-06-14T11:50:25;24.20;96.00
65462;DHT22;53236;43.666;18.444;2023-06-14T11:52:59;24.30;92.60
65462;DHT22;53236;43.666;18.444;2023-06-14T11:55:32;24.40;94.70
65462;DHT22;53236;43.666;18.444;2023-06-14T11:58:01;24.60;94.60
65462;DHT22;53236;43.666;18.444;2023-06-14T12:00:27;24.70;94.40
65462;DHT22;53236;43.666;18.444;2023-06-14T12:02:54;24.80;95.20
65462;DHT22;53236;43.666;18.444;2023-06-14T12:05:23;24.70;96.00
65462;DHT22;53236;43.666;18.444;2023-06-14T12:07:50;24.70;91.60
65462;DHT22;53236;43.666;18.444;2023-06-14T12:10:19;24.60;91.60
65462;DHT22;53236;43.666;18.444;2023-06-14T12:12:45;24.60;91.30
65462;DHT22;53236;43.666;18.444;2023-06-14T12:15:11;24.40;90.80
65462;DHT22;53236;43.666;18.444;2023-06-14T12:17:38;24.20;90.60
65462;DHT22;53236;43.666;18.444;2023-06-14T12:20:11;23.90;91.20
65462;DHT22;53236;43.666;18.444;2023-06-14T12:22:55;23.70;95.60
65462;DHT22;53236;43.666;18.444;2023-06-14T12:25:35;23.50;96.20
65462;DHT22;53236;43.666;18.444;2023-06-14T12:28:07;23.40;97.10
65462;DHT22;53236;43.666;18.444;2023-06-14T12:30:34;23.50;98.80
65462;DHT22;53236;43.666;18.444;2023-06-14T12:33:02;23.40;91.30
65462;DHT22;53236;43.666;18.444;2023-06-14T12:35:27;23.20;92.00
65462;DHT22;53236;43.666;18.444;2023-06-14T12:37:53;23.10;92.70
65462;DHT22;53236;43.666;18.444;2023-06-14T12:40:19;22.80;94.00
65462;DHT22;53236;43.666;18.444;2023-06-14T12:42:45;22.60;95.70
65462;DHT22;53236;43.666;18.444;2023-06-14T12:45:14;22.30;99.90
65462;DHT22;53236;43.666;18.444;2023-06-14T12:47:40;22.10;99.90
65462;DHT22;53236;43.666;18.444;2023-06-14T12:50:06;22.10;99.90
65462;DHT22;53236;43.666;18.444;2023-06-14T12:52:32;22.10;99.90
65462;DHT22;53236;43.666;18.444;2023-06-14T12:55:03;21.90;99.40
65462;DHT22;53236;43.666;18.444;2023-06-14T12:57:29;21.90;99.20
65462;DHT22;53236;43.666;18.444;2023-06-14T12:59:54;21.80;99.90
65462;DHT22;53236;43.666;18.444;2023-06-14T13:02:20;21.70;99.90
65462;DHT22;53236;43.666;18.444;2023-06-14T13:04:48;21.60;99.90
65462;DHT22;53236;43.666;18.444;2023-06-14T13:07:14;21.50;99.90
65462;DHT22;53236;43.666;18.444;2023-06-14T13:09:41;21.30;99.90
65462;DHT22;53236;43.666;18.444;2023-06-14T13:12:07;21.00;99.90
65462;DHT22;53236;43.666;18.444;2023-06-14T13:14:33;20.90;99.90
65462;DHT22;53236;43.666;18.444;2023-06-14T13:16:59;20.80;99.90
65462;DHT22;53236;43.666;18.444;2023-06-14T13:19:25;20.70;99.90
65462;DHT22;53236;43.666;18.444;2023-06-14T13:21:51;20.50;99.90
65462;DHT22;53236;43.666;18.444;2023-06-14T13:24:17;20.40;99.90
65462;DHT22;53236;43.666;18.444;2023-06-14T13:26:43;20.40;99.90
65462;DHT22;53236;43.666;18.444;2023-06-14T13:29:08;20.40;99.90
65462;DHT22;53236;43.666;18.444;2023-06-14T13:31:34;20.30;99.90
65462;DHT22;53236;43.666;18.444;2023-06-14T13:34:00;20.20;99.90
65462;DHT22;53236;43.666;18.444;2023-06-14T13:36:26;20.20;99.90
65462;DHT22;53236;43.666;18.444;2023-06-14T13:38:51;20.10;99.90
65462;DHT22;53236;43.666;18.444;2023-06-14T13:41:18;20.10;99.90
65462;DHT22;53236;43.666;18.444;2023-06-14T13:43:44;20.20;99.90
65462;DHT22;53236;43.666;18.444;2023-06-14T13:46:10;20.20;99.90
65462;DHT22;53236;43.666;18.444;2023-06-14T13:48:35;20.10;99.90
65462;DHT22;53236;43.666;18.444;2023-06-14T13:51:01;20.00;99.90
65462;DHT22;53236;43.666;18.444;2023-06-14T13:53:29;19.90;99.90
65462;DHT22;53236;43.666;18.444;2023-06-14T13:55:55;19.80;99.90
65462;DHT22;53236;43.666;18.444;2023-06-14T13:58:21;19.80;99.90
65462;DHT22;53236;43.666;18.444;2023-06-14T14:00:49;19.80;99.90
65462;DHT22;53236;43.666;18.444;2023-06-14T14:03:15;19.70;99.90
65462;DHT22;53236;43.666;18.444;2023-06-14T14:05:41;19.50;99.90
65462;DHT22;53236;43.666;18.444;2023-06-14T14:08:07;19.60;99.90
65462;DHT22;53236;43.666;18.444;2023-06-14T14:10:32;19.60;99.90
65462;DHT22;53236;43.666;18.444;2023-06-14T14:12:58;19.50;99.90
65462;DHT22;53236;43.666;18.444;2023-06-14T14:15:25;19.40;99.90
65462;DHT22;53236;43.666;18.444;2023-06-14T14:17:51;19.50;99.90
65462;DHT22;53236;43.666;18.444;2023-06-14T14:20:17;19.50;99.90
65462;DHT22;53236;43.666;18.444;2023-06-14T14:22:43;19.60;99.90
65462;DHT22;53236;43.666;18.444;2023-06-14T14:25:09;19.60;99.90
65462;DHT22;53236;43.666;18.444;2023-06-14T14:27:36;19.70;99.90
65462;DHT22;53236;43.666;18.444;2023-06-14T14:30:03;19.80;99.90
65462;DHT22;53236;43.666;18.444;2023-06-14T14:32:30;20.00;99.90
65462;DHT22;53236;43.666;18.444;2023-06-14T14:34:55;20.00;99.90
65462;DHT22;53236;43.666;18.444;2023-06-14T14:37:21;20.10;99.90
65462;DHT22;53236;43.666;18.444;2023-06-14T14:39:47;20.20;99.90
65462;DHT22;53236;43.666;18.444;2023-06-14T14:42:13;20.20;99.90
65462;DHT22;53236;43.666;18.444;2023-06-14T14:44:39;20.20;99.90
65462;DHT22;53236;43.666;18.444;2023-06-14T14:47:05;20.30;99.90
65462;DHT22;53236;43.666;18.444;2023-06-14T14:49:31;20.20;99.90
65462;DHT22;53236;43.666;18.444;2023-06-14T14:51:57;20.20;99.90
65462;DHT22;53236;43.666;18.444;2023-06-14T14:54:23;20.10;99.90
65462;DHT22;53236;43.666;18.444;2023-06-14T14:56:50;20.20;99.90
65462;DHT22;53236;43.666;18.444;2023-06-14T14:59:16;20.20;99.90
65462;DHT22;53236;43.666;18.444;2023-06-14T15:01:43;20.30;99.90
65462;DHT22;53236;43.666;18.444;2023-06-14T15:04:08;20.30;99.90
65462;DHT22;53236;43.666;18.444;2023-06-14T15:06:34;20.30;99.90
65462;DHT22;53236;43.666;18.444;2023-06-14T15:09:01;20.40;99.90
65462;DHT22;53236;43.666;18.444;2023-06-14T15:11:27;20.50;99.90
65462;DHT22;53236;43.666;18.444;2023-06-14T15:13:53;20.50;99.90
65462;DHT22;53236;43.666;18.444;2023-06-14T15:16:19;20.70;99.90
65462;DHT22;53236;43.666;18.444;2023-06-14T15:18:47;20.90;99.90
65462;DHT22;53236;43.666;18.444;2023-06-14T15:21:13;21.00;99.90
65462;DHT22;53236;43.666;18.444;2023-06-14T15:23:39;21.10;99.90
65462;DHT22;53236;43.666;18.444;2023-06-14T15:26:05;20.90;99.90
65462;DHT22;53236;43.666;18.444;2023-06-14T15:28:31;20.60;99.90
65462;DHT22;53236;43.666;18.444;2023-06-14T15:30:59;20.40;99.90
65462;DHT22;53236;43.666;18.444;2023-06-14T15:33:24;20.50;99.90
65462;DHT22;53236;43.666;18.444;2023-06-14T15:35:50;20.50;99.90
65462;DHT22;53236;43.666;18.444;2023-06-14T15:38:16;20.40;99.90